createdAt,value
2022-08-02T00:00:18.750Z,12.00
2022-08-02T00:02:46.861Z,12.00
2022-08-02T00:05:14.483Z,12.10
2022-08-02T00:07:41.638Z,11.90
2022-08-02T00:10:11.213Z,11.80
2022-08-02T00:12:39.121Z,11.80
2022-08-02T00:15:07.999Z,11.80
2022-08-02T00:17:35.196Z,11.80
2022-08-02T00:20:02.310Z,11.80
2022-08-02T00:22:29.133Z,11.70
2022-08-02T00:24:56.045Z,11.70
2022-08-02T00:27:22.833Z,11.70
2022-08-02T00:29:52.910Z,11.70
2022-08-02T00:32:22.684Z,11.60
2022-08-02T00:34:49.927Z,11.50
2022-08-02T00:37:16.917Z,11.50
2022-08-02T00:39:43.800Z,11.60
2022-08-02T00:42:11.380Z,11.60
2022-08-02T00:44:38.433Z,11.70
2022-08-02T00:47:05.446Z,11.70
2022-08-02T00:49:32.768Z,11.60
2022-08-02T00:52:00.770Z,11.50
2022-08-02T00:54:27.891Z,11.50
2022-08-02T00:56:54.721Z,11.50
2022-08-02T00:59:21.626Z,11.50
2022-08-02T01:01:56.141Z,11.40
2022-08-02T01:04:30.647Z,11.50
2022-08-02T01:07:13.034Z,11.40
2022-08-02T01:09:44.964Z,11.40
2022-08-02T01:12:13.079Z,11.40
2022-08-02T01:14:47.528Z,11.30
2022-08-02T01:17:32.401Z,11.20
2022-08-02T01:20:17.801Z,11.20
2022-08-02T01:23:10.852Z,11.20
2022-08-02T01:25:59.184Z,11.40
2022-08-02T01:28:34.527Z,11.40
2022-08-02T01:31:24.869Z,11.40
2022-08-02T01:34:06.081Z,11.40
2022-08-02T01:36:46.878Z,11.40
2022-08-02T01:39:26.895Z,11.40
2022-08-02T01:42:01.352Z,11.30
2022-08-02T01:44:31.851Z,11.40
2022-08-02T01:47:02.020Z,11.40
2022-08-02T01:49:32.992Z,11.30
2022-08-02T01:52:21.579Z,11.20
2022-08-02T01:54:58.059Z,11.10
2022-08-02T01:57:26.403Z,11.10
2022-08-02T01:59:57.622Z,11.00
2022-08-02T02:02:28.888Z,10.90
2022-08-02T02:05:01.931Z,10.90
2022-08-02T02:07:31.489Z,11.00
2022-08-02T02:10:00.752Z,11.00
2022-08-02T02:12:28.608Z,10.90
2022-08-02T02:14:57.185Z,10.90
2022-08-02T02:18:11.171Z,10.80
2022-08-02T02:20:16.988Z,10.80
2022-08-02T02:22:44.592Z,10.80
2022-08-02T02:25:14.341Z,10.80
2022-08-02T02:27:50.015Z,10.80
2022-08-02T02:30:17.620Z,10.90
2022-08-02T02:32:47.642Z,10.80
2022-08-02T02:35:17.994Z,10.70
2022-08-02T02:37:48.267Z,10.70
2022-08-02T02:40:16.866Z,10.60
2022-08-02T02:42:49.259Z,10.70
2022-08-02T02:45:18.502Z,10.70
2022-08-02T02:47:47.111Z,10.60
2022-08-02T02:50:14.404Z,10.60
2022-08-02T02:52:42.970Z,10.60
2022-08-02T02:55:10.978Z,10.50
2022-08-02T02:57:39.319Z,10.60
2022-08-02T03:00:12.487Z,10.60
2022-08-02T03:02:40.405Z,10.60
2022-08-02T03:05:08.610Z,10.60
2022-08-02T03:07:36.414Z,10.60
2022-08-02T03:10:05.209Z,10.60
2022-08-02T03:12:33.542Z,10.60
2022-08-02T03:15:04.008Z,10.70
2022-08-02T03:17:42.469Z,10.70
2022-08-02T03:20:12.297Z,10.60
2022-08-02T03:22:39.361Z,10.60
2022-08-02T03:25:07.788Z,10.60
2022-08-02T03:27:34.624Z,10.70
2022-08-02T03:30:01.550Z,10.80
2022-08-02T03:32:28.778Z,10.80
2022-08-02T03:34:55.894Z,10.80
2022-08-02T03:37:23.849Z,10.80
2022-08-02T03:39:53.376Z,10.70
2022-08-02T03:42:21.850Z,10.60
2022-08-02T03:44:49.803Z,10.60
2022-08-02T03:47:18.713Z,10.40
2022-08-02T03:49:46.305Z,10.50
2022-08-02T03:52:14.532Z,10.50
2022-08-02T03:54:45.748Z,10.60
2022-08-02T03:57:13.735Z,10.60
2022-08-02T03:59:45.353Z,10.60
2022-08-02T04:02:13.848Z,10.70
2022-08-02T04:04:40.966Z,10.80
2022-08-02T04:07:07.938Z,10.80
2022-08-02T04:09:34.757Z,10.90
2022-08-02T04:12:01.591Z,10.80
2022-08-02T04:14:28.789Z,10.70
2022-08-02T04:17:02.051Z,10.70
2022-08-02T04:19:34.131Z,10.70
2022-08-02T04:22:06.868Z,10.70
2022-08-02T04:24:39.426Z,10.80
2022-08-02T04:27:48.970Z,10.80
2022-08-02T04:29:57.033Z,10.90
2022-08-02T04:32:24.560Z,10.80
2022-08-02T04:35:17.645Z,10.70
2022-08-02T04:37:39.043Z,10.70
2022-08-02T04:40:25.895Z,10.70
2022-08-02T04:42:54.192Z,10.70
2022-08-02T04:45:22.431Z,10.70
2022-08-02T04:48:02.155Z,10.70
2022-08-02T04:50:30.975Z,10.70
2022-08-02T04:52:57.877Z,10.80
2022-08-02T04:55:28.677Z,10.90
2022-08-02T04:57:57.479Z,10.90
2022-08-02T05:00:26.453Z,11.00
2022-08-02T05:02:54.075Z,11.00
2022-08-02T05:05:23.975Z,11.10
2022-08-02T05:07:51.010Z,11.10
2022-08-02T05:10:18.340Z,11.20
2022-08-02T05:12:45.379Z,11.20
2022-08-02T05:15:16.574Z,11.20
2022-08-02T05:17:48.017Z,11.20
2022-08-02T05:20:16.407Z,11.20
2022-08-02T05:22:43.592Z,11.30
2022-08-02T05:25:10.894Z,11.30
2022-08-02T05:27:37.837Z,11.40
2022-08-02T05:30:05.920Z,11.60
2022-08-02T05:32:32.924Z,11.70
2022-08-02T05:35:03.942Z,11.90
2022-08-02T05:37:32.381Z,12.00
2022-08-02T05:40:00.799Z,12.10
2022-08-02T05:42:31.637Z,12.20
2022-08-02T05:44:58.868Z,12.30
2022-08-02T05:47:26.024Z,12.40
2022-08-02T05:49:53.246Z,12.40
2022-08-02T05:52:21.037Z,12.60
2022-08-02T05:54:55.195Z,12.70
2022-08-02T05:57:43.388Z,12.80
2022-08-02T06:00:15.229Z,12.80
2022-08-02T06:03:04.516Z,13.00
2022-08-02T06:05:40.016Z,13.20
2022-08-02T06:08:10.541Z,13.30
2022-08-02T06:10:38.691Z,13.50
2022-08-02T06:13:14.428Z,13.50
2022-08-02T06:15:53.595Z,13.70
2022-08-02T06:18:28.600Z,13.80
2022-08-02T06:22:34.575Z,14.00
2022-08-02T06:23:56.694Z,14.10
2022-08-02T06:26:27.276Z,14.20
2022-08-02T06:28:56.103Z,14.30
2022-08-02T06:31:23.523Z,14.40
2022-08-02T06:33:50.587Z,14.50
2022-08-02T06:36:22.239Z,14.60
2022-08-02T06:38:59.145Z,14.70
2022-08-02T06:41:26.851Z,14.90
2022-08-02T06:44:26.274Z,15.00
2022-08-02T06:47:11.794Z,15.10
2022-08-02T06:49:53.043Z,15.30
2022-08-02T06:52:30.959Z,15.50
2022-08-02T06:55:00.508Z,15.90
2022-08-02T06:57:29.613Z,16.10
2022-08-02T06:59:57.075Z,16.30
2022-08-02T07:02:24.383Z,16.50
2022-08-02T07:04:51.586Z,16.60
2022-08-02T07:07:18.495Z,16.80
2022-08-02T07:09:56.846Z,17.00
2022-08-02T07:12:29.156Z,17.10
2022-08-02T07:14:56.906Z,17.40
2022-08-02T07:17:23.762Z,17.60
2022-08-02T07:19:50.593Z,17.80
2022-08-02T07:22:19.319Z,17.90
2022-08-02T07:24:46.133Z,18.00
2022-08-02T07:27:13.417Z,18.10
2022-08-02T07:29:46.876Z,18.30
2022-08-02T07:32:19.413Z,18.30
2022-08-02T07:34:51.215Z,18.40
2022-08-02T07:37:35.693Z,18.50
2022-08-02T07:40:13.693Z,18.60
2022-08-02T07:42:44.999Z,18.80
2022-08-02T07:45:13.549Z,18.90
2022-08-02T07:47:41.832Z,19.00
2022-08-02T07:50:10.173Z,19.10
2022-08-02T07:52:37.495Z,19.20
2022-08-02T07:55:08.313Z,19.30
2022-08-02T07:57:35.717Z,19.50
2022-08-02T08:00:03.718Z,19.60
2022-08-02T08:02:39.327Z,19.70
2022-08-02T08:05:07.059Z,19.80
2022-08-02T08:07:34.989Z,19.90
2022-08-02T08:10:02.212Z,20.00
2022-08-02T08:12:29.166Z,20.10
2022-08-02T08:14:56.028Z,20.10
2022-08-02T08:17:23.543Z,20.10
2022-08-02T08:19:52.507Z,20.20
2022-08-02T08:22:23.214Z,20.20
2022-08-02T08:24:50.248Z,20.30
2022-08-02T08:27:18.504Z,20.40
2022-08-02T08:29:46.262Z,20.50
2022-08-02T08:32:18.102Z,20.60
2022-08-02T08:34:49.365Z,20.80
2022-08-02T08:37:18.606Z,20.70
2022-08-02T08:39:57.534Z,20.70
2022-08-02T08:42:29.328Z,20.60
2022-08-02T08:44:57.228Z,20.70
2022-08-02T08:47:34.771Z,20.70
2022-08-02T08:50:20.269Z,20.80
2022-08-02T08:52:56.084Z,20.80
2022-08-02T08:55:25.053Z,21.10
2022-08-02T08:57:54.819Z,21.30
2022-08-02T09:00:21.871Z,21.30
2022-08-02T09:02:49.364Z,21.40
2022-08-02T09:05:17.667Z,21.60
2022-08-02T09:07:48.538Z,21.80
2022-08-02T09:10:44.897Z,21.80
2022-08-02T09:13:31.190Z,22.10
2022-08-02T09:16:12.229Z,22.40
2022-08-02T09:18:46.435Z,23.00
2022-08-02T09:21:15.823Z,23.20
2022-08-02T09:23:47.911Z,23.40
2022-08-02T09:26:19.961Z,23.50
2022-08-02T09:28:53.109Z,23.60
2022-08-02T09:31:24.438Z,23.90
2022-08-02T09:33:54.537Z,23.90
2022-08-02T09:36:22.795Z,24.00
2022-08-02T09:39:10.628Z,24.10
2022-08-02T09:41:41.319Z,24.50
2022-08-02T09:44:15.765Z,24.70
2022-08-02T09:46:46.226Z,24.60
2022-08-02T09:49:18.643Z,24.90
2022-08-02T09:51:46.578Z,25.30
2022-08-02T09:54:18.522Z,25.50
2022-08-02T09:56:47.857Z,25.70
2022-08-02T09:59:16.290Z,25.40
2022-08-02T10:01:51.561Z,25.50
2022-08-02T10:04:31.654Z,25.20
2022-08-02T10:06:59.892Z,25.30
2022-08-02T10:09:29.053Z,25.80
2022-08-02T10:11:56.916Z,25.90
2022-08-02T10:14:24.250Z,26.10
2022-08-02T10:16:53.366Z,26.40
2022-08-02T10:20:00.531Z,26.40
2022-08-02T10:22:11.711Z,26.10
2022-08-02T10:24:41.710Z,26.60
2022-08-02T10:27:21.967Z,26.70
2022-08-02T10:29:55.553Z,26.90
2022-08-02T10:32:34.677Z,26.80
2022-08-02T10:35:19.421Z,26.80
2022-08-02T10:38:01.197Z,27.10
2022-08-02T10:40:44.544Z,27.50
2022-08-02T10:43:12.320Z,27.40
2022-08-02T10:45:39.595Z,27.30
2022-08-02T10:48:17.462Z,27.50
2022-08-02T10:50:47.039Z,27.30
2022-08-02T10:53:30.051Z,27.70
2022-08-02T10:55:59.535Z,27.70
2022-08-02T10:58:29.719Z,27.60
2022-08-02T11:00:58.097Z,28.20
2022-08-02T11:03:41.377Z,28.20
2022-08-02T11:06:09.746Z,27.80
2022-08-02T11:09:30.989Z,28.20
2022-08-02T11:12:12.596Z,27.80
2022-08-02T11:14:44.701Z,28.00
2022-08-02T11:17:19.015Z,27.60
2022-08-02T11:20:15.286Z,27.20
2022-08-02T11:22:44.591Z,26.10
2022-08-02T11:25:29.697Z,25.80
2022-08-02T11:28:10.163Z,26.60
2022-08-02T11:30:37.955Z,27.10
2022-08-02T11:33:05.740Z,27.00
2022-08-02T11:35:38.091Z,27.30
2022-08-02T11:38:21.125Z,27.80
2022-08-02T11:40:49.127Z,28.10
2022-08-02T11:43:21.327Z,28.20
2022-08-02T11:45:50.964Z,27.90
2022-08-02T11:48:32.798Z,27.90
2022-08-02T11:51:07.398Z,27.70
2022-08-02T11:53:51.588Z,27.30
2022-08-02T11:56:29.343Z,27.20
2022-08-02T11:59:10.266Z,27.20
2022-08-02T12:01:45.587Z,27.10
2022-08-02T12:04:16.981Z,27.30
2022-08-02T12:06:44.542Z,27.70
2022-08-02T12:09:18.797Z,28.00
2022-08-02T12:11:50.059Z,28.10
2022-08-02T12:14:17.322Z,27.90
2022-08-02T12:17:02.819Z,28.00
2022-08-02T12:19:30.213Z,27.90
2022-08-02T12:22:10.949Z,27.90
2022-08-02T12:24:39.345Z,28.00
2022-08-02T12:27:06.588Z,28.10
2022-08-02T12:29:58.918Z,28.00
2022-08-02T12:32:26.681Z,28.20
2022-08-02T12:35:12.617Z,27.70
2022-08-02T12:37:42.745Z,27.90
2022-08-02T12:40:32.419Z,27.70
2022-08-02T12:43:01.537Z,27.20
2022-08-02T12:45:40.813Z,27.60
2022-08-02T12:48:09.661Z,28.10
2022-08-02T12:50:37.903Z,28.80
2022-08-02T12:53:17.582Z,28.70
2022-08-02T12:55:59.312Z,28.40
2022-08-02T12:58:30.004Z,28.90
2022-08-02T13:00:59.944Z,28.90
2022-08-02T13:04:07.660Z,28.70
2022-08-02T13:06:41.972Z,28.50
2022-08-02T13:09:03.857Z,28.70
2022-08-02T13:11:30.741Z,29.00
2022-08-02T13:13:57.573Z,28.70
2022-08-02T13:16:31.111Z,28.60
2022-08-02T13:18:59.282Z,28.30
2022-08-02T13:21:40.798Z,28.40
2022-08-02T13:24:33.262Z,28.60
2022-08-02T13:27:04.629Z,28.80
2022-08-02T13:29:35.916Z,28.90
2022-08-02T13:32:02.747Z,28.70
2022-08-02T13:34:29.634Z,28.80
2022-08-02T13:36:56.413Z,29.20
2022-08-02T13:39:23.226Z,29.40
2022-08-02T13:41:50.029Z,29.10
2022-08-02T13:44:17.095Z,29.30
2022-08-02T13:46:45.442Z,28.80
2022-08-02T13:49:18.567Z,28.60
2022-08-02T13:51:49.799Z,29.20
2022-08-02T13:54:17.390Z,29.80
2022-08-02T13:56:44.459Z,30.10
2022-08-02T13:59:54.167Z,29.40
2022-08-02T14:01:59.649Z,29.60
2022-08-02T14:04:27.457Z,29.10
2022-08-02T14:06:54.507Z,29.10
2022-08-02T14:09:21.567Z,29.30
2022-08-02T14:11:49.073Z,29.60
2022-08-02T14:14:17.492Z,30.20
2022-08-02T14:16:45.318Z,30.10
2022-08-02T14:19:15.866Z,30.40
2022-08-02T14:21:46.586Z,30.40
2022-08-02T14:24:14.970Z,30.30
2022-08-02T14:26:41.941Z,29.70
2022-08-02T14:29:08.834Z,29.70
2022-08-02T14:31:38.963Z,30.40
2022-08-02T14:34:08.554Z,30.90
2022-08-02T14:36:37.201Z,30.10
2022-08-02T14:39:04.118Z,30.30
2022-08-02T14:41:33.808Z,29.70
2022-08-02T14:44:08.043Z,29.40
2022-08-02T14:46:37.787Z,29.80
2022-08-02T14:49:07.674Z,30.00
2022-08-02T14:51:36.917Z,30.30
2022-08-02T14:54:06.025Z,30.30
2022-08-02T14:56:35.572Z,30.10
2022-08-02T14:59:02.393Z,30.40
2022-08-02T15:01:29.329Z,31.10
2022-08-02T15:03:56.207Z,30.80
2022-08-02T15:06:23.178Z,30.60
2022-08-02T15:08:50.220Z,30.60
2022-08-02T15:11:17.112Z,30.90
2022-08-02T15:13:43.957Z,30.50
2022-08-02T15:16:10.816Z,30.10
2022-08-02T15:18:38.011Z,30.00
2022-08-02T15:21:05.209Z,30.10
2022-08-02T15:23:52.079Z,30.10
2022-08-02T15:26:20.950Z,30.10
2022-08-02T15:28:48.644Z,30.20
2022-08-02T15:31:33.252Z,29.80
2022-08-02T15:34:01.138Z,29.50
2022-08-02T15:36:29.651Z,29.60
2022-08-02T15:38:57.627Z,30.00
2022-08-02T15:41:24.961Z,30.40
2022-08-02T15:44:00.239Z,30.60
2022-08-02T15:46:30.701Z,30.60
2022-08-02T15:48:58.119Z,30.80
2022-08-02T15:51:27.075Z,31.00
2022-08-02T15:53:54.051Z,30.50
2022-08-02T15:56:23.939Z,30.70
2022-08-02T15:58:56.001Z,31.10
2022-08-02T16:01:24.685Z,31.50
2022-08-02T16:03:51.602Z,31.60
2022-08-02T16:06:18.523Z,31.50
2022-08-02T16:08:53.465Z,31.10
2022-08-02T16:11:21.465Z,30.20
2022-08-02T16:13:53.523Z,30.40
2022-08-02T16:16:23.657Z,30.80
2022-08-02T16:18:50.691Z,31.00
2022-08-02T16:21:17.589Z,31.00
2022-08-02T16:23:58.968Z,31.10
2022-08-02T16:26:34.154Z,31.40
2022-08-02T16:29:02.374Z,30.40
2022-08-02T16:31:29.618Z,30.40
2022-08-02T16:33:57.186Z,30.00
2022-08-02T16:36:26.140Z,29.30
2022-08-02T16:38:54.032Z,28.90
2022-08-02T16:41:21.482Z,29.20
2022-08-02T16:43:48.313Z,29.80
2022-08-02T16:46:15.353Z,30.40
2022-08-02T16:48:51.038Z,30.70
2022-08-02T16:51:19.228Z,30.50
2022-08-02T16:54:00.015Z,30.30
2022-08-02T16:56:28.998Z,30.10
2022-08-02T16:58:59.350Z,29.60
2022-08-02T17:01:27.905Z,29.10
2022-08-02T17:04:14.606Z,28.60
2022-08-02T17:06:47.938Z,28.20
2022-08-02T17:12:15.873Z,27.70
2022-08-02T17:14:55.634Z,27.50
2022-08-02T17:17:34.320Z,27.30
2022-08-02T17:20:05.093Z,27.20
2022-08-02T17:22:31.895Z,27.20
2022-08-02T17:25:05.031Z,27.10
2022-08-02T17:27:31.898Z,27.10
2022-08-02T17:29:59.973Z,27.10
2022-08-02T17:32:29.147Z,27.10
2022-08-02T17:35:00.106Z,27.30
2022-08-02T17:37:30.788Z,27.70
2022-08-02T17:39:59.969Z,28.40
2022-08-02T17:42:28.832Z,29.10
2022-08-02T17:45:00.850Z,29.80
2022-08-02T17:47:42.358Z,30.60
2022-08-02T17:50:12.494Z,31.10
2022-08-02T17:52:50.382Z,31.40
2022-08-02T17:55:20.668Z,30.80
2022-08-02T17:57:58.186Z,30.80
2022-08-02T18:00:33.590Z,30.50
2022-08-02T18:03:02.175Z,29.80
2022-08-02T18:05:40.055Z,29.10
2022-08-02T18:08:18.345Z,28.80
2022-08-02T18:10:48.556Z,29.00
2022-08-02T18:13:15.477Z,29.40
2022-08-02T18:15:42.336Z,29.60
2022-08-02T18:18:13.392Z,30.00
2022-08-02T18:20:41.639Z,30.00
2022-08-02T18:23:10.994Z,30.00
2022-08-02T18:25:45.815Z,30.00
2022-08-02T18:28:13.684Z,30.10
2022-08-02T18:30:40.874Z,30.10
2022-08-02T18:33:57.453Z,30.10
2022-08-02T18:35:55.308Z,30.00
2022-08-02T18:38:23.568Z,29.70
2022-08-02T18:40:50.699Z,29.20
2022-08-02T18:43:18.762Z,28.80
2022-08-02T18:46:05.287Z,28.50
2022-08-02T18:48:34.515Z,28.20
2022-08-02T18:51:03.241Z,27.70
2022-08-02T18:53:41.444Z,27.20
2022-08-02T18:56:19.710Z,26.80
2022-08-02T18:58:55.941Z,26.20
2022-08-02T19:01:33.423Z,25.70
2022-08-02T19:04:05.214Z,25.10
2022-08-02T19:06:32.673Z,24.70
2022-08-02T19:09:12.769Z,24.20
2022-08-02T19:11:47.180Z,23.90
2022-08-02T19:14:24.049Z,23.50
2022-08-02T19:16:54.288Z,23.20
2022-08-02T19:19:22.167Z,23.00
2022-08-02T19:22:16.587Z,22.80
2022-08-02T19:24:37.047Z,22.50
2022-08-02T19:27:09.073Z,22.30
2022-08-02T19:29:42.746Z,22.10
2022-08-02T19:32:39.870Z,22.00
2022-08-02T19:35:19.909Z,21.80
2022-08-02T19:37:52.387Z,21.60
2022-08-02T19:40:24.063Z,21.50
2022-08-02T19:44:22.905Z,21.40
2022-08-02T19:45:51.072Z,21.30
2022-08-02T19:48:23.477Z,21.20
2022-08-02T19:50:56.713Z,21.10
2022-08-02T19:53:28.481Z,21.00
2022-08-02T19:56:00.337Z,21.00
2022-08-02T19:58:30.330Z,20.90
2022-08-02T20:00:58.300Z,20.80
2022-08-02T20:03:47.719Z,20.70
2022-08-02T20:06:13.646Z,20.70
2022-08-02T20:08:52.768Z,20.70
2022-08-02T20:11:23.291Z,20.70
2022-08-02T20:13:52.175Z,20.70
2022-08-02T20:16:27.982Z,20.70
2022-08-02T20:18:56.360Z,20.80
2022-08-02T20:21:35.919Z,20.80
2022-08-02T20:24:09.421Z,20.70
2022-08-02T20:26:47.965Z,20.70
2022-08-02T20:29:17.662Z,20.80
2022-08-02T20:32:05.928Z,20.80
2022-08-02T20:34:36.367Z,20.80
2022-08-02T20:37:59.155Z,20.70
2022-08-02T20:39:51.616Z,20.70
2022-08-02T20:42:23.377Z,20.80
2022-08-02T20:44:55.403Z,20.90
2022-08-02T20:47:38.861Z,20.80
2022-08-02T20:50:31.686Z,20.80
2022-08-02T20:53:00.572Z,20.80
2022-08-02T20:55:30.852Z,20.80
2022-08-02T20:58:00.948Z,20.80
2022-08-02T21:00:28.568Z,20.70
2022-08-02T21:02:55.670Z,20.60
2022-08-02T21:05:26.960Z,20.70
2022-08-02T21:08:14.223Z,20.60
2022-08-02T21:10:50.286Z,20.60
2022-08-02T21:13:22.627Z,20.50
2022-08-02T21:15:51.624Z,20.40
2022-08-02T21:18:27.404Z,20.40
2022-08-02T21:20:57.649Z,20.30
2022-08-02T21:23:24.535Z,20.10
2022-08-02T21:25:57.345Z,20.00
2022-08-02T21:28:43.671Z,19.80
2022-08-02T21:31:20.672Z,19.80
2022-08-02T21:33:57.251Z,19.70
2022-08-02T21:36:30.899Z,19.60
2022-08-02T21:39:04.896Z,19.50
2022-08-02T21:41:38.918Z,19.50
2022-08-02T21:44:13.428Z,19.50
2022-08-02T21:46:43.062Z,19.40
2022-08-02T21:49:11.511Z,19.40
2022-08-02T21:51:39.421Z,19.40
2022-08-02T21:54:18.723Z,19.40
2022-08-02T21:56:53.421Z,19.30
2022-08-02T21:59:25.252Z,19.30
2022-08-02T22:01:56.468Z,19.30
2022-08-02T22:04:24.407Z,19.20
2022-08-02T22:06:51.289Z,19.20
2022-08-02T22:09:43.947Z,19.10
2022-08-02T22:12:10.243Z,19.10
2022-08-02T22:14:39.981Z,19.00
2022-08-02T22:17:08.706Z,18.90
2022-08-02T22:19:40.230Z,18.90
2022-08-02T22:22:20.416Z,18.90
2022-08-02T22:24:47.218Z,18.90
2022-08-02T22:27:14.509Z,18.80
2022-08-02T22:29:46.696Z,18.80
2022-08-02T22:32:21.146Z,18.70
2022-08-02T22:34:51.709Z,18.60
2022-08-02T22:40:09.543Z,18.60
2022-08-02T22:42:36.782Z,18.50
2022-08-02T22:45:09.149Z,18.50
2022-08-02T22:47:38.878Z,18.40
2022-08-02T22:50:17.848Z,18.40
2022-08-02T22:52:46.903Z,18.30
2022-08-02T22:55:17.857Z,18.20
2022-08-02T22:58:51.414Z,28.00
2022-08-02T22:59:10.147Z,18.20
2022-08-02T23:00:32.090Z,18.20
2022-08-02T23:02:58.982Z,18.10
2022-08-02T23:05:25.882Z,18.10
2022-08-02T23:07:52.713Z,18.20
2022-08-02T23:10:19.545Z,18.20
2022-08-02T23:12:46.383Z,18.20
2022-08-02T23:15:13.291Z,18.20
2022-08-02T23:17:58.839Z,18.10
2022-08-02T23:20:25.731Z,18.10
2022-08-02T23:22:52.677Z,18.10
2022-08-02T23:25:22.627Z,18.10
2022-08-02T23:27:51.188Z,18.00
2022-08-02T23:30:19.847Z,18.00
2022-08-02T23:32:47.545Z,17.90
2022-08-02T23:35:17.056Z,17.80
2022-08-02T23:38:00.456Z,17.70
2022-08-02T23:40:39.135Z,17.70
2022-08-02T23:43:13.950Z,17.60
2022-08-02T23:45:44.689Z,17.60
2022-08-02T23:48:11.522Z,17.50
2022-08-02T23:50:38.379Z,17.60
2022-08-02T23:53:05.244Z,17.60
2022-08-02T23:55:32.085Z,17.60
2022-08-02T23:57:58.903Z,17.60
